Time;durP1;ratioP1;P1;durP2;ratioP2;P2;SDS_P1;SDS_P2;PMS_P1;PMS_P2;Temp;Humidity;BMP_temperature;BMP_pressure;BME280_temperature;BME280_humidity;BME280_pressure;Samples;Min_cycle;Max_cycle;Signal;HPM_P1;HPM_P2
2023/10/08 00:00:45;;;;;;;8.10;5.55;;;;;;;;;;5021403;28;20208;-69
2023/10/08 00:03:14;;;;;;;7.80;6.10;;;;;;;;;;5020173;28;20208;-70
2023/10/08 00:05:42;;;;;;;8.45;5.85;;;;;;;;;;5021649;28;20201;-70
2023/10/08 00:08:10;;;;;;;6.80;5.80;;;;;;;;;;5023196;28;20207;-69
2023/10/08 00:10:37;;;;;;;8.73;5.75;;;;;;;;;;5019218;28;20212;-70
2023/10/08 00:13:07;;;;;;;9.07;5.85;;;;;;;;;;5017850;28;20254;-70
2023/10/08 00:15:36;;;;;;;9.02;5.78;;;;;;;;;;5022129;28;20438;-69
2023/10/08 00:18:04;;;;;;;7.50;5.50;;;;;;;;;;5020797;28;20232;-69
2023/10/08 00:20:42;;;;;;;9.35;5.88;;;;;;;;;;5023050;28;20477;-70
2023/10/08 00:23:10;;;;;;;8.82;5.72;;;;;;;;;;5015892;28;20207;-70
2023/10/08 00:25:40;;;;;;;9.15;5.45;;;;;;;;;;5021230;28;20298;-70
2023/10/08 00:28:10;;;;;;;6.93;5.40;;;;;;;;;;5019791;28;20204;-72
2023/10/08 00:30:38;;;;;;;8.55;5.70;;;;;;;;;;5019656;28;20331;-71
2023/10/08 00:33:07;;;;;;;6.70;5.40;;;;;;;;;;5021179;28;20204;-70
2023/10/08 00:35:38;;;;;;;6.38;5.28;;;;;;;;;;5018122;28;20201;-69
2023/10/08 00:38:08;;;;;;;7.28;5.85;;;;;;;;;;5015952;28;20248;-70
2023/10/08 00:40:38;;;;;;;7.00;5.55;;;;;;;;;;5016992;28;20201;-70
2023/10/08 00:43:09;;;;;;;6.35;5.50;;;;;;;;;;5017076;28;20204;-70
2023/10/08 00:45:42;;;;;;;6.07;5.47;;;;;;;;;;5018412;28;20247;-70
2023/10/08 00:48:11;;;;;;;6.78;5.80;;;;;;;;;;5019365;28;20219;-70
2023/10/08 00:50:43;;;;;;;7.35;5.78;;;;;;;;;;5021022;28;20200;-70
2023/10/08 00:53:17;;;;;;;8.75;5.78;;;;;;;;;;5022508;28;20247;-70
2023/10/08 00:55:52;;;;;;;8.90;6.15;;;;;;;;;;5017702;28;20234;-70
2023/10/08 00:58:23;;;;;;;11.43;6.03;;;;;;;;;;5016896;28;20221;-70
2023/10/08 01:00:52;;;;;;;9.45;5.88;;;;;;;;;;5020682;28;20211;-70
2023/10/08 01:03:20;;;;;;;8.88;5.97;;;;;;;;;;5022665;28;20228;-72
2023/10/08 01:05:49;;;;;;;8.43;5.97;;;;;;;;;;5018464;28;20209;-69
2023/10/08 01:08:22;;;;;;;7.72;6.25;;;;;;;;;;5016459;28;20239;-69
2023/10/08 01:11:00;;;;;;;9.05;6.28;;;;;;;;;;5018547;28;20250;-70
2023/10/08 01:13:35;;;;;;;8.00;6.25;;;;;;;;;;5018827;28;20232;-71
2023/10/08 01:16:02;;;;;;;7.90;6.28;;;;;;;;;;5019002;28;20200;-71
2023/10/08 01:18:32;;;;;;;7.40;6.38;;;;;;;;;;5019433;28;20224;-70
2023/10/08 01:21:11;;;;;;;8.52;6.07;;;;;;;;;;5021857;28;20293;-70
2023/10/08 01:23:39;;;;;;;8.38;6.25;;;;;;;;;;5021952;28;20323;-70
2023/10/08 01:26:11;;;;;;;7.20;6.25;;;;;;;;;;5023943;28;20230;-69
2023/10/08 01:28:38;;;;;;;7.80;6.22;;;;;;;;;;5024078;28;20201;-70
2023/10/08 01:31:06;;;;;;;6.85;5.80;;;;;;;;;;5027197;28;20287;-70
2023/10/08 01:33:37;;;;;;;7.43;5.95;;;;;;;;;;5023835;28;20200;-70
2023/10/08 01:36:08;;;;;;;9.35;6.30;;;;;;;;;;5022856;28;20237;-70
2023/10/08 01:38:35;;;;;;;8.65;6.35;;;;;;;;;;5021675;28;20220;-70
2023/10/08 01:41:10;;;;;;;7.60;6.15;;;;;;;;;;5021428;28;20201;-70
2023/10/08 01:43:38;;;;;;;9.40;6.45;;;;;;;;;;5024705;28;20250;-71
2023/10/08 01:46:11;;;;;;;9.55;6.60;;;;;;;;;;5021897;28;20240;-70
2023/10/08 01:48:39;;;;;;;7.35;6.45;;;;;;;;;;5023196;28;20228;-70
2023/10/08 01:51:11;;;;;;;10.25;6.07;;;;;;;;;;5020713;28;20248;-71
2023/10/08 01:53:39;;;;;;;9.85;5.70;;;;;;;;;;5023084;28;20201;-70
2023/10/08 01:56:10;;;;;;;8.32;6.45;;;;;;;;;;5020252;28;20208;-70
2023/10/08 01:58:38;;;;;;;7.63;6.20;;;;;;;;;;5023063;28;20308;-70
2023/10/08 02:01:11;;;;;;;9.50;6.30;;;;;;;;;;5020252;28;20205;-70
2023/10/08 02:03:38;;;;;;;8.23;6.35;;;;;;;;;;5017852;28;20300;-70
2023/10/08 02:06:08;;;;;;;8.60;6.67;;;;;;;;;;5025187;28;20231;-70
2023/10/08 02:08:36;;;;;;;9.13;6.57;;;;;;;;;;5021942;28;20200;-70
2023/10/08 02:11:03;;;;;;;8.10;5.85;;;;;;;;;;5021399;28;20209;-70
2023/10/08 02:13:34;;;;;;;7.95;6.40;;;;;;;;;;5017480;28;20212;-71
2023/10/08 02:16:01;;;;;;;9.88;6.30;;;;;;;;;;5021610;28;20197;-71
2023/10/08 02:18:30;;;;;;;7.43;6.10;;;;;;;;;;5022455;28;20228;-71
2023/10/08 02:20:58;;;;;;;6.93;6.07;;;;;;;;;;5021608;28;20205;-70
2023/10/08 02:23:25;;;;;;;8.93;6.32;;;;;;;;;;5020263;28;20212;-71
2023/10/08 02:25:54;;;;;;;11.07;6.00;;;;;;;;;;5021809;28;20216;-70
2023/10/08 02:28:24;;;;;;;7.38;5.93;;;;;;;;;;5027319;28;20204;-70
2023/10/08 02:30:52;;;;;;;6.60;5.85;;;;;;;;;;5020861;28;20209;-71
2023/10/08 02:33:20;;;;;;;10.32;5.60;;;;;;;;;;5020590;28;20212;-71
2023/10/08 02:35:47;;;;;;;8.95;6.35;;;;;;;;;;5021759;28;20229;-70
2023/10/08 02:38:16;;;;;;;8.95;6.18;;;;;;;;;;5019003;28;20215;-70
2023/10/08 02:40:46;;;;;;;9.05;6.05;;;;;;;;;;5022095;28;20228;-70
2023/10/08 02:43:14;;;;;;;11.02;6.78;;;;;;;;;;5023524;28;20204;-70
2023/10/08 02:45:42;;;;;;;7.82;6.13;;;;;;;;;;5019124;28;20201;-71
2023/10/08 02:48:12;;;;;;;8.20;6.43;;;;;;;;;;5022200;28;20207;-71
2023/10/08 02:50:40;;;;;;;10.97;6.57;;;;;;;;;;5019191;28;20278;-70
2023/10/08 02:53:11;;;;;;;8.18;6.35;;;;;;;;;;5019585;28;20212;-71
2023/10/08 02:55:43;;;;;;;9.43;6.32;;;;;;;;;;5019938;28;20204;-70
2023/10/08 02:58:14;;;;;;;8.52;6.30;;;;;;;;;;5018502;28;20232;-69
2023/10/08 03:00:41;;;;;;;8.20;6.25;;;;;;;;;;5020427;28;20232;-70
2023/10/08 03:03:15;;;;;;;8.13;5.90;;;;;;;;;;5021555;28;20201;-70
2023/10/08 03:05:43;;;;;;;8.88;5.97;;;;;;;;;;5019586;28;20212;-71
2023/10/08 03:08:11;;;;;;;10.02;6.32;;;;;;;;;;5024071;28;20204;-70
2023/10/08 03:10:39;;;;;;;9.50;6.70;;;;;;;;;;5016975;28;20196;-70
2023/10/08 03:13:09;;;;;;;7.38;6.45;;;;;;;;;;5023169;28;20289;-71
2023/10/08 03:15:46;;;;;;;7.93;6.35;;;;;;;;;;5023251;28;20200;-70
2023/10/08 03:18:14;;;;;;;8.13;5.90;;;;;;;;;;5022040;28;20291;-71
2023/10/08 03:20:45;;;;;;;8.90;6.43;;;;;;;;;;5021311;28;20234;-71
2023/10/08 03:23:23;;;;;;;6.60;6.00;;;;;;;;;;5019146;28;20204;-70
2023/10/08 03:25:59;;;;;;;8.43;6.47;;;;;;;;;;5022604;28;20199;-70
2023/10/08 03:28:27;;;;;;;8.13;6.10;;;;;;;;;;5018939;28;20211;-71
2023/10/08 03:31:02;;;;;;;8.63;6.38;;;;;;;;;;5021095;28;20258;-70
2023/10/08 03:33:34;;;;;;;7.10;6.33;;;;;;;;;;5020954;28;20212;-70
2023/10/08 03:36:09;;;;;;;8.25;6.63;;;;;;;;;;5017123;28;20363;-70
2023/10/08 03:38:50;;;;;;;8.75;6.60;;;;;;;;;;5024108;28;20208;-70
2023/10/08 03:41:20;;;;;;;9.40;6.50;;;;;;;;;;5018866;28;20305;-69
2023/10/08 03:44:01;;;;;;;10.00;7.07;;;;;;;;;;5016050;28;20287;-69
2023/10/08 03:46:28;;;;;;;9.90;7.00;;;;;;;;;;5020994;28;20200;-70
2023/10/08 03:48:57;;;;;;;10.13;6.90;;;;;;;;;;5020549;28;20242;-71
2023/10/08 03:51:27;;;;;;;8.90;6.07;;;;;;;;;;5018222;28;20228;-70
2023/10/08 03:54:06;;;;;;;9.48;7.18;;;;;;;;;;5014610;28;20200;-70
2023/10/08 03:56:36;;;;;;;7.60;6.40;;;;;;;;;;5019326;28;20200;-71
2023/10/08 03:59:12;;;;;;;8.07;6.38;;;;;;;;;;5020604;28;20262;-71
2023/10/08 04:01:39;;;;;;;7.63;6.65;;;;;;;;;;5019011;28;20243;-71
2023/10/08 04:04:12;;;;;;;7.57;6.60;;;;;;;;;;5016870;28;20323;-71
2023/10/08 04:06:39;;;;;;;8.20;6.20;;;;;;;;;;5020484;28;20211;-70
2023/10/08 04:09:23;;;;;;;8.60;6.82;;;;;;;;;;5016118;28;20196;-71
2023/10/08 04:11:55;;;;;;;9.88;6.45;;;;;;;;;;5019787;28;20216;-70
2023/10/08 04:14:23;;;;;;;10.70;6.18;;;;;;;;;;5019668;28;20209;-71
2023/10/08 04:16:52;;;;;;;7.00;6.17;;;;;;;;;;5019289;28;20207;-70
2023/10/08 04:19:20;;;;;;;9.48;6.70;;;;;;;;;;5018973;28;20224;-71
2023/10/08 04:21:53;;;;;;;10.73;7.18;;;;;;;;;;5021291;28;20267;-70
2023/10/08 04:24:34;;;;;;;6.47;5.35;;;;;;;;;;5017741;28;20300;-71
2023/10/08 04:27:02;;;;;;;6.25;5.65;;;;;;;;;;5022484;28;20215;-70
2023/10/08 04:29:32;;;;;;;6.65;4.80;;;;;;;;;;5029145;28;20259;-71
2023/10/08 04:32:07;;;;;;;6.35;5.40;;;;;;;;;;5020042;28;20205;-71
2023/10/08 04:34:34;;;;;;;8.85;5.78;;;;;;;;;;5018184;28;20406;-71
2023/10/08 04:37:03;;;;;;;5.80;5.00;;;;;;;;;;5017210;28;20251;-71
2023/10/08 04:39:38;;;;;;;7.57;5.78;;;;;;;;;;5019877;28;20231;-71
2023/10/08 04:42:10;;;;;;;8.13;5.95;;;;;;;;;;5018242;28;20208;-65
2023/10/08 04:44:39;;;;;;;6.82;5.40;;;;;;;;;;5018889;28;20205;-65
2023/10/08 04:47:07;;;;;;;8.02;5.22;;;;;;;;;;5022331;28;20201;-65
2023/10/08 04:49:37;;;;;;;6.15;4.80;;;;;;;;;;5018317;28;20244;-65
2023/10/08 04:52:09;;;;;;;5.85;4.85;;;;;;;;;;5020313;28;20210;-66
2023/10/08 04:54:40;;;;;;;6.65;4.97;;;;;;;;;;5016541;28;20201;-65
2023/10/08 04:57:14;;;;;;;5.15;4.65;;;;;;;;;;5018048;28;20207;-67
2023/10/08 04:59:42;;;;;;;5.80;4.57;;;;;;;;;;5017622;28;20231;-65
2023/10/08 05:05:21;;;;;;;5.43;4.55;;;;;;;;;;5022219;28;20200;-66
2023/10/08 05:08:17;;;;;;;6.63;4.90;;;;;;;;;;5017128;28;20201;-65
2023/10/08 05:11:00;;;;;;;7.32;5.25;;;;;;;;;;5025414;28;20327;-66
2023/10/08 05:13:32;;;;;;;7.68;5.40;;;;;;;;;;5018354;28;20239;-65
2023/10/08 05:16:11;;;;;;;6.47;5.35;;;;;;;;;;5017380;28;20203;-65
2023/10/08 05:19:06;;;;;;;6.38;5.75;;;;;;;;;;5017724;28;20237;-66
2023/10/08 05:21:50;;;;;;;7.00;5.03;;;;;;;;;;5019867;28;20196;-65
2023/10/08 05:24:27;;;;;;;8.02;5.78;;;;;;;;;;5019819;28;20212;-66
2023/10/08 05:27:26;;;;;;;6.40;5.60;;;;;;;;;;5019648;28;20207;-66
2023/10/08 05:32:51;;;;;;;7.00;5.40;;;;;;;;;;5019796;28;20237;-65
2023/10/08 05:38:21;;;;;;;9.07;5.60;;;;;;;;;;4978029;28;20209;-65
2023/10/08 05:41:04;;;;;;;6.22;5.63;;;;;;;;;;5005931;28;20220;-66
2023/10/08 05:46:51;;;;;;;9.18;5.60;;;;;;;;;;5020376;28;20283;-66
2023/10/08 05:49:38;;;;;;;5.65;5.05;;;;;;;;;;5019221;28;20227;-66
2023/10/08 05:55:14;;;;;;;6.15;5.43;;;;;;;;;;5020386;28;20200;-67
2023/10/08 05:57:46;;;;;;;6.97;5.72;;;;;;;;;;5023726;28;20227;-66
2023/10/08 06:00:45;;;;;;;7.53;5.93;;;;;;;;;;5024028;28;20224;-66
2023/10/08 06:03:21;;;;;;;9.45;6.85;;;;;;;;;;5016868;28;20208;-66
2023/10/08 06:06:07;;;;;;;7.93;6.88;;;;;;;;;;5021317;28;20199;-67
2023/10/08 06:08:48;;;;;;;9.00;6.90;;;;;;;;;;5025809;28;20204;-67
2023/10/08 06:11:27;;;;;;;15.10;6.65;;;;;;;;;;5025434;28;20197;-66
2023/10/08 06:13:59;;;;;;;9.68;7.10;;;;;;;;;;5023690;28;20302;-66
2023/10/08 06:16:43;;;;;;;9.90;6.95;;;;;;;;;;5020694;28;20231;-66
2023/10/08 06:19:09;;;;;;;12.43;6.80;;;;;;;;;;5023214;28;20196;-65
2023/10/08 06:21:38;;;;;;;6.35;5.55;;;;;;;;;;5020978;28;20208;-66
2023/10/08 06:24:08;;;;;;;8.77;7.03;;;;;;;;;;5024965;28;20278;-66
2023/10/08 06:26:38;;;;;;;8.25;7.10;;;;;;;;;;5017903;28;20209;-66
2023/10/08 06:29:18;;;;;;;9.27;7.30;;;;;;;;;;5025552;28;20212;-67
2023/10/08 06:31:51;;;;;;;6.93;5.55;;;;;;;;;;5021189;28;20196;-66
2023/10/08 06:34:21;;;;;;;6.47;5.20;;;;;;;;;;5024029;28;20208;-66
2023/10/08 06:36:50;;;;;;;9.20;5.57;;;;;;;;;;5026997;28;20259;-66
2023/10/08 06:39:19;;;;;;;7.60;5.72;;;;;;;;;;5024459;28;20212;-66
2023/10/08 06:41:47;;;;;;;6.35;5.75;;;;;;;;;;5025448;28;20208;-66
2023/10/08 06:44:15;;;;;;;6.45;5.38;;;;;;;;;;5017382;28;20227;-66
2023/10/08 06:46:42;;;;;;;5.90;5.30;;;;;;;;;;5022548;28;20211;-66
2023/10/08 06:49:13;;;;;;;7.97;5.38;;;;;;;;;;5021361;28;20243;-65
2023/10/08 06:51:41;;;;;;;6.22;5.30;;;;;;;;;;5026803;28;20255;-65
2023/10/08 06:54:13;;;;;;;8.00;6.40;;;;;;;;;;5019796;28;20209;-66
2023/10/08 06:56:45;;;;;;;7.28;6.25;;;;;;;;;;5021113;28;20228;-65
2023/10/08 06:59:12;;;;;;;8.23;6.82;;;;;;;;;;5015461;28;20208;-67
2023/10/08 07:01:40;;;;;;;8.30;5.65;;;;;;;;;;5012029;28;20235;-65
2023/10/08 07:04:11;;;;;;;6.95;5.70;;;;;;;;;;5017794;28;20216;-70
2023/10/08 07:06:40;;;;;;;5.85;5.10;;;;;;;;;;5019653;28;20240;-70
2023/10/08 07:09:22;;;;;;;5.80;5.20;;;;;;;;;;5009030;28;20227;-71
2023/10/08 07:11:49;;;;;;;6.03;4.72;;;;;;;;;;5018969;28;20231;-71
2023/10/08 07:14:16;;;;;;;7.15;5.43;;;;;;;;;;5018817;28;20270;-71
2023/10/08 07:16:43;;;;;;;5.82;4.93;;;;;;;;;;5014439;28;20204;-71
2023/10/08 07:19:17;;;;;;;5.65;5.05;;;;;;;;;;5017801;28;20229;-70
2023/10/08 07:21:47;;;;;;;5.70;5.00;;;;;;;;;;5022813;28;20246;-70
2023/10/08 07:24:17;;;;;;;6.38;5.05;;;;;;;;;;5025344;28;20240;-71
2023/10/08 07:26:47;;;;;;;5.30;4.53;;;;;;;;;;5015120;28;20209;-71
2023/10/08 07:29:17;;;;;;;6.45;5.03;;;;;;;;;;5018486;28;20201;-71
2023/10/08 07:31:48;;;;;;;5.70;5.20;;;;;;;;;;5017896;28;20200;-71
2023/10/08 07:34:25;;;;;;;6.95;5.57;;;;;;;;;;5028742;28;20201;-70
2023/10/08 07:36:54;;;;;;;8.35;5.28;;;;;;;;;;5021706;28;20197;-70
2023/10/08 07:39:35;;;;;;;7.18;6.00;;;;;;;;;;5023211;28;20219;-70
2023/10/08 07:42:05;;;;;;;7.32;6.60;;;;;;;;;;5013066;28;20224;-70
2023/10/08 07:44:35;;;;;;;7.53;5.72;;;;;;;;;;5012550;28;20212;-70
2023/10/08 07:47:04;;;;;;;6.20;5.60;;;;;;;;;;5018777;28;20208;-70
2023/10/08 07:49:32;;;;;;;6.82;6.10;;;;;;;;;;5015081;28;20262;-70
2023/10/08 07:52:00;;;;;;;9.10;6.03;;;;;;;;;;5021063;28;20208;-70
2023/10/08 07:54:28;;;;;;;7.60;6.20;;;;;;;;;;5028128;28;20204;-70
2023/10/08 07:57:00;;;;;;;8.63;5.70;;;;;;;;;;5018925;28;20213;-70
2023/10/08 07:59:27;;;;;;;5.80;5.20;;;;;;;;;;5023232;28;20208;-70
2023/10/08 08:01:55;;;;;;;7.13;5.55;;;;;;;;;;5020800;28;20233;-70
2023/10/08 08:04:22;;;;;;;6.60;5.13;;;;;;;;;;5021965;28;20228;-70
2023/10/08 08:06:50;;;;;;;7.70;5.10;;;;;;;;;;5021595;28;20227;-70
2023/10/08 08:09:20;;;;;;;6.25;4.95;;;;;;;;;;5020928;28;20236;-69
2023/10/08 08:11:47;;;;;;;7.25;5.57;;;;;;;;;;5012857;28;20213;-65
2023/10/08 08:14:16;;;;;;;6.47;5.07;;;;;;;;;;5018600;28;20204;-70
2023/10/08 08:16:46;;;;;;;8.10;5.10;;;;;;;;;;5019668;28;20204;-70
2023/10/08 08:19:15;;;;;;;6.93;4.82;;;;;;;;;;5028725;28;20263;-70
2023/10/08 08:21:45;;;;;;;5.13;4.25;;;;;;;;;;5027067;28;20274;-70
2023/10/08 08:24:12;;;;;;;8.35;4.60;;;;;;;;;;5016380;28;20216;-69
2023/10/08 08:27:00;;;;;;;7.88;4.90;;;;;;;;;;5014141;28;20233;-69
2023/10/08 08:29:28;;;;;;;6.57;4.53;;;;;;;;;;5013222;28;20201;-70
2023/10/08 08:31:56;;;;;;;5.28;3.95;;;;;;;;;;5019902;28;20960;-69
2023/10/08 08:34:24;;;;;;;6.25;4.47;;;;;;;;;;5023920;28;20208;-69
2023/10/08 08:36:51;;;;;;;6.65;4.72;;;;;;;;;;5021810;28;20207;-69
2023/10/08 08:39:28;;;;;;;6.53;4.30;;;;;;;;;;5025477;28;20212;-69
2023/10/08 08:42:00;;;;;;;4.47;3.60;;;;;;;;;;5023843;28;20284;-69
2023/10/08 08:44:30;;;;;;;6.90;4.32;;;;;;;;;;5015926;28;20205;-69
2023/10/08 08:46:58;;;;;;;5.97;3.85;;;;;;;;;;5017213;28;20208;-69
2023/10/08 08:49:25;;;;;;;4.30;3.85;;;;;;;;;;5015837;28;20337;-69
2023/10/08 08:51:55;;;;;;;6.53;4.43;;;;;;;;;;5018932;28;20209;-69
2023/10/08 08:54:24;;;;;;;5.47;3.90;;;;;;;;;;5020291;28;20231;-69
2023/10/08 08:56:52;;;;;;;5.18;3.65;;;;;;;;;;5017506;28;20204;-70
2023/10/08 08:59:21;;;;;;;4.75;3.40;;;;;;;;;;5021629;28;20207;-69
2023/10/08 09:01:50;;;;;;;4.85;3.90;;;;;;;;;;5016600;28;20230;-69
2023/10/08 09:04:18;;;;;;;6.55;4.07;;;;;;;;;;5018999;28;20203;-69
2023/10/08 09:06:45;;;;;;;7.50;4.30;;;;;;;;;;5019752;28;20212;-69
2023/10/08 09:09:21;;;;;;;6.32;4.45;;;;;;;;;;5028802;28;20240;-69
2023/10/08 09:11:51;;;;;;;5.40;3.85;;;;;;;;;;5022738;28;20208;-69
2023/10/08 09:14:18;;;;;;;7.88;3.97;;;;;;;;;;5018941;28;20219;-69
2023/10/08 09:16:47;;;;;;;5.78;3.80;;;;;;;;;;5015356;28;20219;-69
2023/10/08 09:19:18;;;;;;;6.03;3.83;;;;;;;;;;5011906;28;20206;-69
2023/10/08 09:21:45;;;;;;;5.65;3.60;;;;;;;;;;5018884;28;20227;-69
2023/10/08 09:24:12;;;;;;;4.90;3.45;;;;;;;;;;5022522;28;20212;-64
2023/10/08 09:26:40;;;;;;;5.93;3.50;;;;;;;;;;5057874;28;20204;-64
2023/10/08 09:29:08;;;;;;;6.63;3.58;;;;;;;;;;5021718;28;20204;-64
2023/10/08 09:31:36;;;;;;;4.78;3.80;;;;;;;;;;5016759;28;20215;-64
2023/10/08 09:34:05;;;;;;;5.88;3.90;;;;;;;;;;5021580;28;20438;-64
2023/10/08 09:36:33;;;;;;;6.32;4.10;;;;;;;;;;5022048;28;20204;-64
2023/10/08 09:39:04;;;;;;;6.70;3.80;;;;;;;;;;5019728;28;20259;-64
2023/10/08 09:41:32;;;;;;;4.60;3.47;;;;;;;;;;5028223;28;20219;-63
2023/10/08 09:44:00;;;;;;;6.32;4.03;;;;;;;;;;5028905;28;20278;-64
2023/10/08 09:46:30;;;;;;;5.38;3.80;;;;;;;;;;5017498;28;20200;-64
2023/10/08 09:49:01;;;;;;;5.05;4.10;;;;;;;;;;5023285;28;20232;-63
2023/10/08 09:51:31;;;;;;;5.65;3.78;;;;;;;;;;5024644;28;20213;-64
2023/10/08 09:54:04;;;;;;;5.93;4.15;;;;;;;;;;5024174;28;20266;-63
2023/10/08 09:56:34;;;;;;;5.07;3.80;;;;;;;;;;5021103;28;20209;-64
2023/10/08 09:59:01;;;;;;;8.50;4.03;;;;;;;;;;5026581;28;20215;-63
2023/10/08 10:01:31;;;;;;;6.85;3.85;;;;;;;;;;5019502;28;20220;-63
2023/10/08 10:03:59;;;;;;;5.78;4.10;;;;;;;;;;5017955;28;20209;-63
2023/10/08 10:06:28;;;;;;;6.97;3.90;;;;;;;;;;5022793;28;20303;-64
2023/10/08 10:08:58;;;;;;;6.13;4.18;;;;;;;;;;5024046;28;20204;-63
2023/10/08 10:11:27;;;;;;;5.45;4.00;;;;;;;;;;5017446;28;20201;-63
2023/10/08 10:14:00;;;;;;;7.30;4.05;;;;;;;;;;5024405;28;20231;-63
2023/10/08 10:16:28;;;;;;;5.90;3.70;;;;;;;;;;5017655;28;20204;-63
2023/10/08 10:18:58;;;;;;;8.43;4.18;;;;;;;;;;5018467;28;20200;-63
2023/10/08 10:21:30;;;;;;;5.80;4.05;;;;;;;;;;5018475;28;20236;-63
2023/10/08 10:23:59;;;;;;;6.85;3.58;;;;;;;;;;5018626;28;20227;-63
2023/10/08 10:26:28;;;;;;;8.32;4.10;;;;;;;;;;5021995;28;20268;-63
2023/10/08 10:29:14;;;;;;;6.82;4.32;;;;;;;;;;5022163;28;20222;-63
2023/10/08 10:31:46;;;;;;;6.28;3.85;;;;;;;;;;5023230;28;20239;-63
2023/10/08 10:34:16;;;;;;;6.40;4.40;;;;;;;;;;5022158;28;20216;-64
2023/10/08 10:36:43;;;;;;;7.00;4.40;;;;;;;;;;5027588;28;20204;-63
2023/10/08 10:39:16;;;;;;;6.78;4.20;;;;;;;;;;5019778;28;20205;-63
2023/10/08 10:41:44;;;;;;;5.80;4.07;;;;;;;;;;5021179;28;20229;-64
2023/10/08 10:44:13;;;;;;;8.40;3.90;;;;;;;;;;5022176;28;20302;-64
2023/10/08 10:46:42;;;;;;;6.93;4.05;;;;;;;;;;5020203;28;20220;-64
2023/10/08 10:49:18;;;;;;;7.95;4.50;;;;;;;;;;5022094;28;20247;-65
2023/10/08 10:51:46;;;;;;;8.50;6.47;;;;;;;;;;5017140;28;20220;-63
2023/10/08 10:54:20;;;;;;;8.32;4.70;;;;;;;;;;5019857;28;20208;-64
2023/10/08 10:56:58;;;;;;;6.13;4.10;;;;;;;;;;5018203;28;20200;-64
2023/10/08 10:59:28;;;;;;;7.97;4.93;;;;;;;;;;5018611;28;20253;-64
2023/10/08 11:02:05;;;;;;;9.05;4.30;;;;;;;;;;5022769;28;20224;-63
2023/10/08 11:04:35;;;;;;;8.02;4.10;;;;;;;;;;5012426;28;20216;-63
2023/10/08 11:07:06;;;;;;;10.20;4.18;;;;;;;;;;5019434;28;20208;-63
2023/10/08 11:09:38;;;;;;;7.63;4.40;;;;;;;;;;5022097;28;20214;-63
2023/10/08 11:12:10;;;;;;;6.38;4.45;;;;;;;;;;5020302;28;20203;-63
2023/10/08 11:14:41;;;;;;;6.82;4.78;;;;;;;;;;5019980;28;20208;-63
2023/10/08 11:17:11;;;;;;;4.75;4.13;;;;;;;;;;5024843;28;20284;-63
2023/10/08 11:19:38;;;;;;;11.52;5.15;;;;;;;;;;5027364;28;20211;-64
2023/10/08 11:22:05;;;;;;;7.93;4.95;;;;;;;;;;5019976;28;20216;-63
2023/10/08 11:24:37;;;;;;;6.80;4.70;;;;;;;;;;5020324;28;20316;-63
2023/10/08 11:27:16;;;;;;;5.68;4.65;;;;;;;;;;5016802;28;20204;-62
2023/10/08 11:29:43;;;;;;;7.05;4.90;;;;;;;;;;5019892;28;20238;-63
2023/10/08 11:32:12;;;;;;;8.75;4.60;;;;;;;;;;5021249;28;20201;-63
2023/10/08 11:34:40;;;;;;;6.35;4.10;;;;;;;;;;5019925;28;20253;-62
2023/10/08 11:37:19;;;;;;;7.40;4.47;;;;;;;;;;5020471;28;20208;-63
2023/10/08 11:39:49;;;;;;;8.25;4.43;;;;;;;;;;5020757;28;20220;-63
2023/10/08 11:45:17;;;;;;;4.90;3.90;;;;;;;;;;5017015;28;20202;-63
2023/10/08 11:47:45;;;;;;;4.97;3.83;;;;;;;;;;5021250;28;20339;-62
2023/10/08 11:50:17;;;;;;;5.47;3.60;;;;;;;;;;5017196;28;20327;-63
2023/10/08 11:52:44;;;;;;;6.30;3.80;;;;;;;;;;5021840;28;20200;-63
2023/10/08 11:55:18;;;;;;;9.45;4.03;;;;;;;;;;5023640;28;20228;-62
2023/10/08 11:57:46;;;;;;;6.88;4.55;;;;;;;;;;5017416;28;20208;-63
2023/10/08 12:00:18;;;;;;;4.97;4.03;;;;;;;;;;5020754;28;20212;-63
2023/10/08 12:02:47;;;;;;;8.27;4.00;;;;;;;;;;5018737;28;20316;-63
2023/10/08 12:05:19;;;;;;;6.22;3.83;;;;;;;;;;5020034;28;20212;-64
2023/10/08 12:07:47;;;;;;;6.70;3.65;;;;;;;;;;5019634;28;20216;-62
2023/10/08 12:10:16;;;;;;;5.13;3.70;;;;;;;;;;5020283;28;20206;-62
2023/10/08 12:12:45;;;;;;;7.80;4.18;;;;;;;;;;5025407;28;20192;-63
2023/10/08 12:15:19;;;;;;;5.07;3.70;;;;;;;;;;5024844;28;20200;-62
2023/10/08 12:17:55;;;;;;;7.10;4.28;;;;;;;;;;5018827;28;20220;-62
2023/10/08 12:20:23;;;;;;;6.45;4.32;;;;;;;;;;5025847;28;20207;-63
2023/10/08 12:22:51;;;;;;;7.43;4.10;;;;;;;;;;5021579;28;20225;-63
2023/10/08 12:25:19;;;;;;;8.85;4.18;;;;;;;;;;5020246;28;20223;-62
2023/10/08 12:27:46;;;;;;;7.47;4.20;;;;;;;;;;5021908;28;20413;-63
2023/10/08 12:30:14;;;;;;;5.57;3.60;;;;;;;;;;5022448;28;20203;-63
2023/10/08 12:32:42;;;;;;;8.23;3.65;;;;;;;;;;5018423;28;20196;-63
2023/10/08 12:35:12;;;;;;;5.68;4.10;;;;;;;;;;5020809;28;20218;-62
2023/10/08 12:37:40;;;;;;;7.05;3.72;;;;;;;;;;5020326;28;20223;-62
2023/10/08 12:40:12;;;;;;;7.30;4.10;;;;;;;;;;5016063;28;20212;-63
2023/10/08 12:42:44;;;;;;;7.38;4.18;;;;;;;;;;5022314;28;20244;-62
2023/10/08 12:45:12;;;;;;;7.10;3.97;;;;;;;;;;5024195;28;20204;-64
2023/10/08 12:47:39;;;;;;;6.28;4.45;;;;;;;;;;5027429;28;20238;-63
2023/10/08 12:50:08;;;;;;;6.88;3.88;;;;;;;;;;5020213;28;20240;-63
2023/10/08 12:52:35;;;;;;;9.85;4.20;;;;;;;;;;5017607;28;20207;-66
2023/10/08 12:55:04;;;;;;;7.80;3.80;;;;;;;;;;5014338;28;20255;-66
2023/10/08 12:57:34;;;;;;;8.73;4.30;;;;;;;;;;5020546;28;20220;-67
2023/10/08 13:00:03;;;;;;;8.38;3.83;;;;;;;;;;5015267;28;20209;-67
2023/10/08 13:02:30;;;;;;;7.78;3.85;;;;;;;;;;5014709;28;20230;-66
2023/10/08 13:04:59;;;;;;;8.50;4.22;;;;;;;;;;5018385;28;20205;-66
2023/10/08 13:07:27;;;;;;;5.05;3.58;;;;;;;;;;5018077;28;20211;-66
2023/10/08 13:09:54;;;;;;;8.35;3.67;;;;;;;;;;5022658;28;20208;-67
2023/10/08 13:12:21;;;;;;;6.25;3.58;;;;;;;;;;5016080;28;20201;-66
2023/10/08 13:14:49;;;;;;;13.15;4.28;;;;;;;;;;5021464;28;20204;-66
2023/10/08 13:17:19;;;;;;;5.93;3.75;;;;;;;;;;5024649;28;20220;-66
2023/10/08 13:19:46;;;;;;;8.15;4.03;;;;;;;;;;5028368;28;20204;-66
2023/10/08 13:22:19;;;;;;;6.18;3.97;;;;;;;;;;5024545;28;20227;-66
2023/10/08 13:24:48;;;;;;;5.80;3.70;;;;;;;;;;5026691;28;20196;-66
2023/10/08 13:27:16;;;;;;;5.78;3.90;;;;;;;;;;5025620;28;20208;-66
2023/10/08 13:29:43;;;;;;;6.63;3.47;;;;;;;;;;5020922;28;20193;-66
2023/10/08 13:32:17;;;;;;;5.68;3.67;;;;;;;;;;5027376;28;20271;-66
2023/10/08 13:34:45;;;;;;;6.95;3.90;;;;;;;;;;5021269;28;20214;-66
2023/10/08 13:37:14;;;;;;;7.22;3.60;;;;;;;;;;5025479;28;20200;-66
2023/10/08 13:39:41;;;;;;;7.88;3.80;;;;;;;;;;5019535;28;20291;-66
2023/10/08 13:42:08;;;;;;;6.43;3.35;;;;;;;;;;5027555;28;20219;-66
2023/10/08 13:44:35;;;;;;;5.43;3.65;;;;;;;;;;5027608;28;20232;-66
2023/10/08 13:47:05;;;;;;;7.30;3.78;;;;;;;;;;5022555;28;20205;-66
2023/10/08 13:49:33;;;;;;;6.45;4.10;;;;;;;;;;5018324;28;20254;-66
2023/10/08 13:52:01;;;;;;;6.82;4.00;;;;;;;;;;5023781;28;20192;-67
2023/10/08 13:54:29;;;;;;;7.75;3.70;;;;;;;;;;5019290;28;20227;-66
2023/10/08 13:56:56;;;;;;;7.10;4.13;;;;;;;;;;5021228;28;20208;-66
2023/10/08 13:59:24;;;;;;;8.98;4.20;;;;;;;;;;5023917;28;20209;-66
2023/10/08 14:01:52;;;;;;;9.63;4.75;;;;;;;;;;5024505;28;20200;-66
2023/10/08 14:04:20;;;;;;;7.25;4.35;;;;;;;;;;5022185;28;20216;-66
2023/10/08 14:06:51;;;;;;;6.38;3.88;;;;;;;;;;5027113;28;20262;-66
2023/10/08 14:09:22;;;;;;;7.45;4.13;;;;;;;;;;5020644;28;20250;-66
2023/10/08 14:11:50;;;;;;;8.38;3.90;;;;;;;;;;5023938;28;20204;-66
2023/10/08 14:14:19;;;;;;;5.32;4.22;;;;;;;;;;5019913;28;20212;-68
2023/10/08 14:16:51;;;;;;;6.68;4.03;;;;;;;;;;5024492;28;20206;-67
2023/10/08 14:19:23;;;;;;;9.23;4.55;;;;;;;;;;5022268;28;20196;-67
2023/10/08 14:22:00;;;;;;;8.20;4.03;;;;;;;;;;5022464;28;20304;-66
2023/10/08 14:24:32;;;;;;;4.82;3.83;;;;;;;;;;5024255;28;20204;-67
2023/10/08 14:27:02;;;;;;;9.07;4.68;;;;;;;;;;5018094;28;20205;-67
2023/10/08 14:29:30;;;;;;;8.40;4.40;;;;;;;;;;5019898;28;20204;-66
2023/10/08 14:31:59;;;;;;;6.88;4.72;;;;;;;;;;5018517;28;20291;-67
2023/10/08 14:42:54;;;;;;;8.18;4.38;;;;;;;;;;5020368;28;20209;-66
2023/10/08 14:42:59;;;;;;;8.52;4.90;;;;;;;;;;5024725;28;20384;-67
2023/10/08 14:45:26;;;;;;;7.78;4.18;;;;;;;;;;5021949;28;20203;-67
2023/10/08 14:47:55;;;;;;;8.07;4.50;;;;;;;;;;5019241;28;20204;-67
2023/10/08 14:50:22;;;;;;;8.75;4.15;;;;;;;;;;5014239;28;20240;-66
2023/10/08 14:52:50;;;;;;;6.47;4.03;;;;;;;;;;5018826;28;20274;-66
2023/10/08 14:55:21;;;;;;;9.93;4.63;;;;;;;;;;5019964;28;20214;-66
2023/10/08 14:57:48;;;;;;;6.22;4.15;;;;;;;;;;5022953;28;20204;-67
2023/10/08 15:00:16;;;;;;;9.57;4.47;;;;;;;;;;5020930;28;20204;-67
2023/10/08 15:02:43;;;;;;;8.07;4.28;;;;;;;;;;5014115;28;20229;-66
2023/10/08 15:05:11;;;;;;;6.03;4.57;;;;;;;;;;5018645;28;20205;-66
2023/10/08 15:07:38;;;;;;;8.00;4.28;;;;;;;;;;5024366;28;20204;-67
2023/10/08 15:10:10;;;;;;;8.48;4.80;;;;;;;;;;5021415;28;20228;-66
2023/10/08 15:12:39;;;;;;;10.52;4.57;;;;;;;;;;5019995;28;20196;-66
2023/10/08 15:15:12;;;;;;;9.07;4.32;;;;;;;;;;5022444;28;20204;-67
2023/10/08 15:17:40;;;;;;;7.20;4.32;;;;;;;;;;5014933;28;20250;-66
2023/10/08 15:20:08;;;;;;;6.88;4.50;;;;;;;;;;5022596;28;20204;-67
2023/10/08 15:22:36;;;;;;;9.48;5.00;;;;;;;;;;5023219;28;20252;-67
2023/10/08 15:25:03;;;;;;;12.30;4.78;;;;;;;;;;5024207;28;20205;-66
2023/10/08 15:27:32;;;;;;;7.70;4.45;;;;;;;;;;5018551;28;20232;-67